createdAt,value
2023-03-28T00:00:51.528Z,39.63
2023-03-28T00:03:22.725Z,34.33
2023-03-28T00:05:51.449Z,31.00
2023-03-28T00:08:18.859Z,35.63
2023-03-28T00:10:46.207Z,36.15
2023-03-28T00:13:14.459Z,30.08
2023-03-28T00:15:42.730Z,36.40
2023-03-28T00:18:13.377Z,34.80
2023-03-28T00:20:45.533Z,32.28
2023-03-28T00:23:22.718Z,37.95
2023-03-28T00:25:49.746Z,37.10
2023-03-28T00:28:16.752Z,34.60
2023-03-28T00:30:43.728Z,36.00
2023-03-28T00:33:11.513Z,32.35
2023-03-28T00:35:38.705Z,32.67
2023-03-28T00:38:05.922Z,33.03
2023-03-28T00:40:37.874Z,32.72
2023-03-28T00:43:05.226Z,33.65
2023-03-28T00:45:33.252Z,33.13
2023-03-28T00:48:06.896Z,32.47
2023-03-28T00:50:47.073Z,31.15
2023-03-28T00:53:23.935Z,36.80
2023-03-28T00:55:57.657Z,32.72
2023-03-28T00:58:27.821Z,33.63
2023-03-28T01:00:56.533Z,35.75
2023-03-28T01:03:28.874Z,31.25
2023-03-28T01:05:56.909Z,32.83
2023-03-28T01:08:30.130Z,32.00
2023-03-28T01:10:58.339Z,31.73
2023-03-28T01:13:35.032Z,33.28
2023-03-28T01:16:04.342Z,31.52
2023-03-28T01:18:34.946Z,30.30
2023-03-28T01:21:40.290Z,28.90
2023-03-28T01:24:38.703Z,25.90
2023-03-28T01:27:08.473Z,29.95
2023-03-28T01:30:08.620Z,33.38
2023-03-28T01:33:01.917Z,32.25
2023-03-28T01:35:53.749Z,28.65
2023-03-28T01:38:43.603Z,30.20
2023-03-28T01:41:25.482Z,33.55
2023-03-28T01:44:18.505Z,30.98
2023-03-28T01:46:59.390Z,31.67
2023-03-28T01:49:39.049Z,31.45
2023-03-28T01:52:08.758Z,30.38
2023-03-28T01:54:47.669Z,31.13
2023-03-28T01:57:28.767Z,32.17
2023-03-28T02:00:29.397Z,30.40
2023-03-28T02:03:29.255Z,33.95
2023-03-28T02:05:58.309Z,35.50
2023-03-28T02:08:30.577Z,32.75
2023-03-28T02:10:58.890Z,32.85
2023-03-28T02:13:47.918Z,32.67
2023-03-28T02:16:16.932Z,32.88
2023-03-28T02:18:49.673Z,33.63
2023-03-28T02:21:27.808Z,30.58
2023-03-28T02:23:56.295Z,33.55
2023-03-28T02:26:25.631Z,32.35
2023-03-28T02:28:56.983Z,31.33
2023-03-28T02:31:24.830Z,30.58
2023-03-28T02:33:53.198Z,32.85
2023-03-28T02:36:25.990Z,34.60
2023-03-28T02:38:52.859Z,35.20
2023-03-28T02:41:41.998Z,30.60
2023-03-28T02:44:27.734Z,33.63
2023-03-28T02:47:30.199Z,39.22
2023-03-28T02:50:18.950Z,36.28
2023-03-28T02:52:51.570Z,29.98
2023-03-28T02:55:55.176Z,31.65
2023-03-28T02:58:40.994Z,27.50
2023-03-28T03:01:10.687Z,29.80
2023-03-28T03:03:38.035Z,31.40
2023-03-28T03:06:06.303Z,38.03
2023-03-28T03:08:33.438Z,32.50
2023-03-28T03:11:00.768Z,32.22
2023-03-28T03:13:27.844Z,33.53
2023-03-28T03:15:56.354Z,29.60
2023-03-28T03:18:23.740Z,32.97
2023-03-28T03:20:50.777Z,33.03
2023-03-28T03:23:18.085Z,32.30
2023-03-28T03:25:45.439Z,30.85
2023-03-28T03:28:13.353Z,30.20
2023-03-28T03:30:40.490Z,29.63
2023-03-28T03:33:10.472Z,26.05
2023-03-28T03:35:38.239Z,32.47
2023-03-28T03:38:05.421Z,28.98
2023-03-28T03:40:32.444Z,30.40
2023-03-28T03:43:02.167Z,28.60
2023-03-28T03:45:29.227Z,26.83
2023-03-28T03:47:56.365Z,34.88
2023-03-28T03:50:23.514Z,31.67
2023-03-28T03:52:50.578Z,27.67
2023-03-28T03:55:18.295Z,26.65
2023-03-28T03:57:45.435Z,26.27
2023-03-28T04:00:13.087Z,30.80
2023-03-28T04:02:40.851Z,31.23
2023-03-28T04:05:08.895Z,31.15
2023-03-28T04:07:36.351Z,28.17
2023-03-28T04:10:03.796Z,29.45
2023-03-28T04:12:30.939Z,27.27
2023-03-28T04:14:58.035Z,28.98
2023-03-28T04:17:30.009Z,30.80
2023-03-28T04:19:57.413Z,25.02
2023-03-28T04:22:30.063Z,27.85
2023-03-28T04:24:57.494Z,27.92
2023-03-28T04:27:31.493Z,30.35
2023-03-28T04:30:00.699Z,25.05
2023-03-28T04:32:28.106Z,27.55
2023-03-28T04:34:55.054Z,31.70
2023-03-28T04:37:22.658Z,28.52
2023-03-28T04:39:49.709Z,33.63
2023-03-28T04:42:17.621Z,29.25
2023-03-28T04:44:45.035Z,29.85
2023-03-28T04:47:13.077Z,31.58
2023-03-28T04:49:40.073Z,29.77
2023-03-28T04:52:07.588Z,35.10
2023-03-28T04:54:34.644Z,35.95
2023-03-28T04:57:02.623Z,34.38
2023-03-28T04:59:29.630Z,36.47
2023-03-28T05:01:56.612Z,79.60
2023-03-28T05:04:25.912Z,265.65
2023-03-28T05:06:53.001Z,91.50
2023-03-28T05:09:20.940Z,37.45
2023-03-28T05:11:48.373Z,35.05
2023-03-28T05:14:15.504Z,39.13
2023-03-28T05:16:42.588Z,36.20
2023-03-28T05:19:10.692Z,37.45
2023-03-28T05:21:37.740Z,40.42
2023-03-28T05:24:04.931Z,37.42
2023-03-28T05:26:32.484Z,38.33
2023-03-28T05:28:59.559Z,38.22
2023-03-28T05:31:29.360Z,41.72
2023-03-28T05:33:56.867Z,33.50
2023-03-28T05:36:24.455Z,42.42
2023-03-28T05:38:51.977Z,36.38
2023-03-28T05:41:18.988Z,34.28
2023-03-28T05:43:46.054Z,33.70
2023-03-28T05:46:13.077Z,40.17
2023-03-28T05:48:40.111Z,34.45
2023-03-28T05:51:07.366Z,37.78
2023-03-28T05:53:34.385Z,34.45
2023-03-28T05:56:01.379Z,37.15
2023-03-28T05:58:28.348Z,34.20
2023-03-28T06:00:56.716Z,36.78
2023-03-28T06:03:23.885Z,38.50
2023-03-28T06:05:50.858Z,34.22
2023-03-28T06:08:17.828Z,35.78
2023-03-28T06:10:44.825Z,38.03
2023-03-28T06:13:11.901Z,37.90
2023-03-28T06:15:38.875Z,36.15
2023-03-28T06:18:06.141Z,37.22
2023-03-28T06:20:33.169Z,34.33
2023-03-28T06:23:00.222Z,32.17
2023-03-28T06:25:27.203Z,33.80
2023-03-28T06:27:54.177Z,27.02
2023-03-28T06:30:21.148Z,32.58
2023-03-28T06:32:48.197Z,32.38
2023-03-28T06:35:15.574Z,30.63
2023-03-28T06:37:42.558Z,31.02
2023-03-28T06:40:10.265Z,24.70
2023-03-28T06:42:37.363Z,25.42
2023-03-28T06:45:04.951Z,24.25
2023-03-28T06:47:31.999Z,22.90
2023-03-28T06:49:59.002Z,24.02
2023-03-28T06:52:26.057Z,22.85
2023-03-28T06:54:53.144Z,22.17
2023-03-28T06:57:20.257Z,22.63
2023-03-28T06:59:47.396Z,22.05
2023-03-28T07:02:14.428Z,21.92
2023-03-28T07:04:41.421Z,21.02
2023-03-28T07:07:09.644Z,21.08
2023-03-28T07:09:37.487Z,21.83
2023-03-28T07:12:04.877Z,20.77
2023-03-28T07:14:32.024Z,21.00
2023-03-28T07:16:59.098Z,20.77
2023-03-28T07:19:26.233Z,22.20
2023-03-28T07:21:53.349Z,21.60
2023-03-28T07:24:20.510Z,21.17
2023-03-28T07:26:47.617Z,19.77
2023-03-28T07:29:14.592Z,20.05
2023-03-28T07:31:41.731Z,17.77
2023-03-28T07:34:08.926Z,18.02
2023-03-28T07:36:36.117Z,17.23
2023-03-28T07:39:03.143Z,17.15
2023-03-28T07:41:30.168Z,16.92
2023-03-28T07:43:57.127Z,17.75
2023-03-28T07:46:25.274Z,20.15
2023-03-28T07:48:52.328Z,18.48
2023-03-28T07:51:19.702Z,17.38
2023-03-28T07:53:46.982Z,15.93
2023-03-28T07:56:14.288Z,16.08
2023-03-28T07:58:41.954Z,16.20
2023-03-28T08:01:12.087Z,18.60
2023-03-28T08:03:40.245Z,17.40
2023-03-28T08:11:17.609Z,18.13
2023-03-28T08:13:44.677Z,16.55
2023-03-28T08:16:14.480Z,18.85
2023-03-28T08:19:03.507Z,16.45
2023-03-28T08:21:38.616Z,17.02
2023-03-28T08:24:07.904Z,17.27
2023-03-28T08:26:35.054Z,15.65
2023-03-28T08:29:02.435Z,15.55
2023-03-28T08:31:29.884Z,16.52
2023-03-28T08:33:57.981Z,15.30
2023-03-28T08:36:27.277Z,15.45
2023-03-28T08:39:00.337Z,15.57
2023-03-28T08:41:41.015Z,15.60
2023-03-28T08:44:34.990Z,16.42
2023-03-28T08:47:06.845Z,15.93
2023-03-28T08:49:45.014Z,16.23
2023-03-28T08:52:16.130Z,16.40
2023-03-28T08:55:00.149Z,17.45
2023-03-28T08:57:29.980Z,26.95
2023-03-28T09:00:20.665Z,16.23
2023-03-28T09:02:49.761Z,17.73
2023-03-28T09:05:25.604Z,17.15
2023-03-28T09:10:40.254Z,17.45
2023-03-28T09:13:27.443Z,16.95
2023-03-28T09:16:27.074Z,17.05
2023-03-28T09:19:37.032Z,17.08
2023-03-28T09:22:52.825Z,15.70
2023-03-28T09:25:27.390Z,16.17
2023-03-28T09:28:03.421Z,16.20
2023-03-28T09:30:34.363Z,45.67
2023-03-28T09:33:09.280Z,19.65
2023-03-28T09:35:36.977Z,16.30
2023-03-28T09:38:06.989Z,16.73
2023-03-28T09:40:35.688Z,16.45
2023-03-28T09:43:33.510Z,16.98
2023-03-28T09:46:07.348Z,15.68
2023-03-28T09:48:39.178Z,16.42
2023-03-28T09:51:13.169Z,14.93
2023-03-28T09:53:40.132Z,27.10
2023-03-28T09:56:28.754Z,18.05
2023-03-28T09:58:58.460Z,15.90
2023-03-28T10:01:34.798Z,17.30
2023-03-28T10:04:02.471Z,16.50
2023-03-28T10:06:32.189Z,16.60
2023-03-28T10:09:17.257Z,15.30
2023-03-28T10:11:56.666Z,16.60
2023-03-28T10:14:46.946Z,15.98
2023-03-28T10:17:35.421Z,16.90
2023-03-28T10:20:24.991Z,15.30
2023-03-28T10:22:56.546Z,16.08
2023-03-28T10:25:45.017Z,15.65
2023-03-28T10:28:34.072Z,15.80
2023-03-28T10:31:02.808Z,16.10
2023-03-28T10:33:42.806Z,19.35
2023-03-28T10:36:12.888Z,15.23
2023-03-28T10:38:50.443Z,15.30
2023-03-28T10:41:22.298Z,15.23
2023-03-28T10:43:51.103Z,15.90
2023-03-28T10:46:24.028Z,16.38
2023-03-28T10:49:14.523Z,15.88
2023-03-28T10:51:42.842Z,14.88
2023-03-28T10:54:22.788Z,15.13
2023-03-28T10:57:04.838Z,15.82
2023-03-28T10:59:42.798Z,16.17
2023-03-28T11:02:12.830Z,17.25
2023-03-28T11:04:58.924Z,17.73
2023-03-28T11:07:58.614Z,16.05
2023-03-28T11:10:44.396Z,16.55
2023-03-28T11:13:22.097Z,15.65
2023-03-28T11:16:03.919Z,16.48
2023-03-28T11:18:49.788Z,16.30
2023-03-28T11:21:28.464Z,15.80
2023-03-28T11:24:18.689Z,15.60
2023-03-28T11:27:16.402Z,15.88
2023-03-28T11:29:46.888Z,15.57
2023-03-28T11:32:19.899Z,15.73
2023-03-28T11:35:02.178Z,15.93
2023-03-28T11:37:36.881Z,18.58
2023-03-28T11:40:15.189Z,15.60
2023-03-28T11:42:50.200Z,16.30
2023-03-28T11:45:18.947Z,15.20
2023-03-28T11:47:50.480Z,16.77
2023-03-28T11:50:28.414Z,16.60
2023-03-28T11:53:02.095Z,15.88
2023-03-28T11:55:34.725Z,15.15
2023-03-28T11:58:17.616Z,15.38
2023-03-28T12:00:51.884Z,16.40
2023-03-28T12:06:07.282Z,15.90
2023-03-28T12:11:25.699Z,17.23
2023-03-28T12:14:11.039Z,16.95
2023-03-28T12:16:51.214Z,16.40
2023-03-28T12:19:31.055Z,16.23
2023-03-28T12:22:09.375Z,16.10
2023-03-28T12:24:40.332Z,16.58
2023-03-28T12:27:25.744Z,16.42
2023-03-28T12:30:05.101Z,16.20
2023-03-28T12:32:54.263Z,15.68
2023-03-28T12:36:03.925Z,17.17
2023-03-28T12:38:47.945Z,17.48
2023-03-28T12:41:23.475Z,16.23
2023-03-28T12:43:57.449Z,16.50
2023-03-28T12:46:39.323Z,16.02
2023-03-28T12:49:12.456Z,15.52
2023-03-28T12:51:44.232Z,15.73
2023-03-28T12:54:17.179Z,16.38
2023-03-28T12:56:48.236Z,16.25
2023-03-28T12:59:37.019Z,16.95
2023-03-28T13:02:42.587Z,17.27
2023-03-28T13:05:16.311Z,15.90
2023-03-28T13:08:04.445Z,16.65
2023-03-28T13:11:13.673Z,16.70
2023-03-28T13:14:16.753Z,16.30
2023-03-28T13:16:52.516Z,16.08
2023-03-28T13:19:21.573Z,16.55
2023-03-28T13:21:54.203Z,16.52
2023-03-28T13:24:36.426Z,16.55
2023-03-28T13:27:32.994Z,16.58
2023-03-28T13:30:05.279Z,17.83
2023-03-28T13:32:42.240Z,16.95
2023-03-28T13:35:46.424Z,17.88
2023-03-28T13:38:55.010Z,17.77
2023-03-28T13:41:48.111Z,17.13
2023-03-28T13:44:40.990Z,17.15
2023-03-28T13:47:16.544Z,16.73
2023-03-28T13:49:59.866Z,16.58
2023-03-28T13:52:26.926Z,17.80
2023-03-28T13:55:01.538Z,18.40
2023-03-28T13:57:28.818Z,16.30
2023-03-28T14:00:01.598Z,15.48
2023-03-28T14:02:35.731Z,17.73
2023-03-28T14:05:14.752Z,16.10
2023-03-28T14:07:42.044Z,15.82
2023-03-28T14:10:30.764Z,15.80
2023-03-28T14:13:18.529Z,15.82
2023-03-28T14:15:46.352Z,16.80
2023-03-28T14:18:18.586Z,15.95
2023-03-28T14:20:47.005Z,17.15
2023-03-28T14:23:32.361Z,18.23
2023-03-28T14:26:23.731Z,21.17
2023-03-28T14:28:52.236Z,16.88
2023-03-28T14:31:37.650Z,17.10
2023-03-28T14:34:18.896Z,16.23
2023-03-28T14:37:06.608Z,16.83
2023-03-28T14:39:35.949Z,16.33
2023-03-28T14:42:06.680Z,16.45
2023-03-28T14:44:39.489Z,17.33
2023-03-28T14:47:07.929Z,17.48
2023-03-28T14:49:36.892Z,16.48
2023-03-28T14:52:10.614Z,16.75
2023-03-28T14:54:41.649Z,17.10
2023-03-28T14:57:13.864Z,15.75
2023-03-28T14:59:45.064Z,16.48
2023-03-28T15:02:40.873Z,16.65
2023-03-28T15:05:15.669Z,16.58
2023-03-28T15:07:43.208Z,15.82
2023-03-28T15:10:20.907Z,16.30
2023-03-28T15:12:51.470Z,16.05
2023-03-28T15:15:38.335Z,16.10
2023-03-28T15:18:11.358Z,16.48
2023-03-28T15:20:39.333Z,15.88
2023-03-28T15:23:27.156Z,15.82
2023-03-28T15:25:55.079Z,16.35
2023-03-28T15:28:22.720Z,15.65
2023-03-28T15:30:50.277Z,16.23
2023-03-28T15:33:24.776Z,15.52
2023-03-28T15:36:08.257Z,15.80
2023-03-28T15:38:38.995Z,16.70
2023-03-28T15:41:31.878Z,16.30
2023-03-28T15:44:20.828Z,17.05
2023-03-28T15:46:47.881Z,16.50
2023-03-28T15:49:15.309Z,17.17
2023-03-28T15:51:52.587Z,16.80
2023-03-28T15:54:30.175Z,19.27
2023-03-28T15:57:01.793Z,16.60
2023-03-28T15:59:37.282Z,15.35
2023-03-28T16:02:22.970Z,15.90
2023-03-28T16:04:59.936Z,16.45
2023-03-28T16:07:27.246Z,16.38
2023-03-28T16:09:54.259Z,16.27
2023-03-28T16:12:21.290Z,16.25
2023-03-28T16:14:52.968Z,16.85
2023-03-28T16:17:25.033Z,17.58
2023-03-28T16:19:52.461Z,16.48
2023-03-28T16:22:21.210Z,17.73
2023-03-28T16:24:52.886Z,19.33
2023-03-28T16:27:21.655Z,20.80
2023-03-28T16:29:48.743Z,19.92
2023-03-28T16:32:16.629Z,45.13
2023-03-28T16:34:44.503Z,18.58
2023-03-28T16:37:11.596Z,18.55
2023-03-28T16:39:38.840Z,19.13
2023-03-28T16:42:06.716Z,17.70
2023-03-28T16:44:33.699Z,17.63
2023-03-28T16:47:02.390Z,17.75
2023-03-28T16:49:29.745Z,17.95
2023-03-28T16:51:56.833Z,18.33
2023-03-28T16:54:24.480Z,19.38
2023-03-28T16:56:52.099Z,20.55
2023-03-28T16:59:20.743Z,20.02
2023-03-28T17:01:48.695Z,19.65
2023-03-28T17:04:15.931Z,22.02
2023-03-28T17:06:42.975Z,18.75
2023-03-28T17:09:09.998Z,18.38
2023-03-28T17:11:37.036Z,17.70
2023-03-28T17:14:03.940Z,17.63
2023-03-28T17:16:30.945Z,18.48
2023-03-28T17:18:58.092Z,18.15
2023-03-28T17:21:25.260Z,18.88
2023-03-28T17:23:52.914Z,17.98
2023-03-28T17:26:20.039Z,17.90
2023-03-28T17:28:47.307Z,19.65
2023-03-28T17:31:20.130Z,19.63
2023-03-28T17:33:48.762Z,22.13
2023-03-28T17:36:34.855Z,22.45
2023-03-28T17:39:02.607Z,18.80
2023-03-28T17:41:29.626Z,64.18
2023-03-28T17:43:57.525Z,80.57
2023-03-28T17:46:24.955Z,45.83
2023-03-28T17:48:52.060Z,20.92
2023-03-28T17:51:19.305Z,20.52
2023-03-28T17:53:47.168Z,20.50
2023-03-28T17:56:16.328Z,19.80
2023-03-28T17:58:44.655Z,18.60
2023-03-28T18:01:14.804Z,19.50
2023-03-28T18:03:42.336Z,21.17
2023-03-28T18:06:09.706Z,21.00
2023-03-28T18:08:36.833Z,20.92
2023-03-28T18:11:10.111Z,19.45
2023-03-28T18:13:38.532Z,20.23
2023-03-28T18:16:10.642Z,21.92
2023-03-28T18:18:38.895Z,21.48
2023-03-28T18:21:08.208Z,21.95
2023-03-28T18:23:36.188Z,25.65
2023-03-28T18:26:03.829Z,23.23
2023-03-28T18:28:31.112Z,20.65
2023-03-28T18:31:16.637Z,22.88
2023-03-28T18:33:44.772Z,19.58
2023-03-28T18:36:13.533Z,20.52
2023-03-28T18:38:42.948Z,21.90
2023-03-28T18:41:11.105Z,20.25
2023-03-28T18:43:39.457Z,20.00
2023-03-28T18:46:15.446Z,20.15
2023-03-28T18:48:43.789Z,21.13
2023-03-28T18:51:11.900Z,20.67
2023-03-28T18:53:38.983Z,19.52
2023-03-28T18:56:06.860Z,19.45
2023-03-28T18:58:34.521Z,20.58
2023-03-28T19:01:03.669Z,19.95
2023-03-28T19:03:34.743Z,20.42
2023-03-28T19:06:02.671Z,23.50
2023-03-28T19:08:30.337Z,21.33
2023-03-28T19:11:00.221Z,20.67
2023-03-28T19:13:29.007Z,19.83
2023-03-28T19:16:01.122Z,18.77
2023-03-28T19:18:28.912Z,19.42
2023-03-28T19:20:57.052Z,19.02
2023-03-28T19:23:25.446Z,18.75
2023-03-28T19:25:52.987Z,18.92
2023-03-28T19:28:21.896Z,18.98
2023-03-28T19:30:55.938Z,19.00
2023-03-28T19:35:49.866Z,18.45
2023-03-28T19:38:16.852Z,18.30
2023-03-28T19:40:44.356Z,18.70
2023-03-28T19:43:11.585Z,18.73
2023-03-28T19:45:41.410Z,18.83
2023-03-28T19:48:08.533Z,18.58
2023-03-28T19:50:36.754Z,18.67
2023-03-28T19:53:04.513Z,18.48
2023-03-28T19:55:31.557Z,18.58
2023-03-28T19:57:59.822Z,19.10
2023-03-28T20:00:26.887Z,18.20
2023-03-28T20:02:54.228Z,18.73
2023-03-28T20:05:21.288Z,18.83
2023-03-28T20:07:48.280Z,18.45
2023-03-28T20:10:15.459Z,18.85
2023-03-28T20:12:42.408Z,19.08
2023-03-28T20:15:09.934Z,19.35
2023-03-28T20:17:36.959Z,19.80
2023-03-28T20:20:05.125Z,18.98
2023-03-28T20:22:34.321Z,19.40
2023-03-28T20:25:01.537Z,19.70
2023-03-28T20:27:29.299Z,19.60
2023-03-28T20:29:56.287Z,18.85
2023-03-28T20:32:23.265Z,19.08
2023-03-28T20:34:50.442Z,20.80
2023-03-28T20:37:18.203Z,19.10
2023-03-28T20:39:47.308Z,20.55
2023-03-28T20:42:14.346Z,20.23
2023-03-28T20:44:41.328Z,19.45
2023-03-28T20:47:10.759Z,19.60
2023-03-28T20:49:38.544Z,19.45
2023-03-28T20:52:07.972Z,20.88
2023-03-28T20:54:35.220Z,19.98
2023-03-28T20:57:02.356Z,19.23
2023-03-28T20:59:29.420Z,20.10
2023-03-28T21:01:56.449Z,20.17
2023-03-28T21:04:23.893Z,20.23
2023-03-28T21:06:50.967Z,20.27
2023-03-28T21:09:18.374Z,22.17
2023-03-28T21:11:45.845Z,20.17
2023-03-28T21:14:14.011Z,19.98
2023-03-28T21:16:41.699Z,20.10
2023-03-28T21:19:09.388Z,20.77
2023-03-28T21:21:36.693Z,21.00
2023-03-28T21:24:04.954Z,19.73
2023-03-28T21:26:32.612Z,20.60
2023-03-28T21:28:59.673Z,20.75
2023-03-28T21:31:29.277Z,19.42
2023-03-28T21:33:57.842Z,19.95
2023-03-28T21:36:26.806Z,20.27
2023-03-28T21:38:54.392Z,20.05
2023-03-28T21:41:22.525Z,19.65
2023-03-28T21:43:50.384Z,20.08
2023-03-28T21:46:18.906Z,19.58
2023-03-28T21:48:48.280Z,20.13
2023-03-28T21:51:17.245Z,19.90
2023-03-28T21:53:44.496Z,19.30
2023-03-28T21:56:14.303Z,20.52
2023-03-28T21:58:41.704Z,19.98
2023-03-28T22:01:11.742Z,20.52
2023-03-28T22:03:38.859Z,19.65
2023-03-28T22:06:06.657Z,21.25
2023-03-28T22:08:33.713Z,20.75
2023-03-28T22:11:04.667Z,20.23
2023-03-28T22:13:31.936Z,20.77
2023-03-28T22:16:00.176Z,20.42
2023-03-28T22:18:28.153Z,20.30
2023-03-28T22:20:55.446Z,20.00
2023-03-28T22:23:24.018Z,19.90
2023-03-28T22:25:53.231Z,20.17
2023-03-28T22:28:24.613Z,19.50
2023-03-28T22:30:56.362Z,20.40
2023-03-28T22:33:24.229Z,20.27
2023-03-28T22:35:51.822Z,20.17
2023-03-28T22:38:19.596Z,19.83
2023-03-28T22:40:47.629Z,19.45
2023-03-28T22:43:15.144Z,19.48
2023-03-28T22:45:43.014Z,19.00
2023-03-28T22:48:16.331Z,19.17
2023-03-28T22:50:44.531Z,19.27
2023-03-28T22:53:12.547Z,18.60
2023-03-28T22:55:39.609Z,18.90
2023-03-28T22:58:07.091Z,18.58
2023-03-28T23:00:34.801Z,18.67
2023-03-28T23:03:02.110Z,19.08
2023-03-28T23:05:29.519Z,18.83
2023-03-28T23:07:56.712Z,18.85
2023-03-28T23:10:24.390Z,18.75
2023-03-28T23:12:52.051Z,18.30
2023-03-28T23:15:19.118Z,18.42
2023-03-28T23:17:46.176Z,20.48
2023-03-28T23:20:15.003Z,19.75
2023-03-28T23:22:44.574Z,19.90
2023-03-28T23:25:13.404Z,18.63
2023-03-28T23:27:40.721Z,18.52
2023-03-28T23:30:10.202Z,19.17
2023-03-28T23:32:37.541Z,19.65
2023-03-28T23:35:05.808Z,20.02
2023-03-28T23:37:34.586Z,19.70
2023-03-28T23:40:02.350Z,19.77
2023-03-28T23:42:29.345Z,20.60
2023-03-28T23:44:56.333Z,19.95
2023-03-28T23:47:23.343Z,20.05
2023-03-28T23:49:50.424Z,20.40
2023-03-28T23:52:17.413Z,20.33
2023-03-28T23:54:44.442Z,20.65
2023-03-28T23:57:11.788Z,20.73
2023-03-28T23:59:38.979Z,20.42
